createdAt,value
2022-07-26T00:00:14.919Z,1.13
2022-07-26T00:02:47.346Z,1.30
2022-07-26T00:05:16.929Z,1.65
2022-07-26T00:07:45.210Z,1.38
2022-07-26T00:10:13.480Z,1.85
2022-07-26T00:12:41.122Z,1.30
2022-07-26T00:15:11.083Z,1.63
2022-07-26T00:17:39.075Z,1.30
2022-07-26T00:20:07.103Z,1.75
2022-07-26T00:22:34.431Z,1.15
2022-07-26T00:25:04.197Z,1.35
2022-07-26T00:29:58.184Z,1.73
2022-07-26T00:32:25.279Z,1.50
2022-07-26T00:34:52.397Z,1.50
2022-07-26T00:37:21.146Z,1.45
2022-07-26T00:39:49.463Z,1.47
2022-07-26T00:42:16.554Z,1.45
2022-07-26T00:44:45.518Z,1.50
2022-07-26T00:47:13.692Z,1.73
2022-07-26T00:49:41.498Z,1.52
2022-07-26T00:52:10.243Z,1.60
2022-07-26T00:54:38.392Z,1.65
2022-07-26T00:57:06.670Z,1.20
2022-07-26T00:59:33.815Z,1.55
2022-07-26T01:02:01.543Z,1.52
2022-07-26T01:04:28.917Z,1.60
2022-07-26T01:06:56.286Z,1.60
2022-07-26T01:09:23.714Z,1.40
2022-07-26T01:11:51.409Z,1.40
2022-07-26T01:14:22.556Z,1.60
2022-07-26T01:16:50.340Z,1.33
2022-07-26T01:19:17.832Z,1.60
2022-07-26T01:21:46.013Z,1.58
2022-07-26T01:24:13.155Z,1.80
2022-07-26T01:26:40.238Z,1.73
2022-07-26T01:29:07.887Z,1.67
2022-07-26T01:31:35.496Z,1.63
2022-07-26T01:34:02.760Z,1.55
2022-07-26T01:36:29.811Z,1.70
2022-07-26T01:38:56.868Z,1.70
2022-07-26T01:41:37.120Z,1.50
2022-07-26T01:44:07.186Z,1.75
2022-07-26T01:46:35.875Z,1.48
2022-07-26T01:49:03.519Z,1.92
2022-07-26T01:51:30.731Z,1.83
2022-07-26T01:53:57.725Z,2.20
2022-07-26T01:56:24.792Z,2.40
2022-07-26T01:58:51.851Z,1.92
2022-07-26T02:01:38.236Z,2.22
2022-07-26T02:04:06.511Z,1.90
2022-07-26T02:06:34.428Z,1.63
2022-07-26T02:09:01.925Z,2.08
2022-07-26T02:11:29.434Z,2.10
2022-07-26T02:13:56.745Z,2.17
2022-07-26T02:16:24.403Z,2.00
2022-07-26T02:18:51.568Z,1.75
2022-07-26T02:21:18.598Z,2.00
2022-07-26T02:23:45.665Z,2.05
2022-07-26T02:26:12.768Z,2.65
2022-07-26T02:28:39.826Z,2.53
2022-07-26T02:31:06.969Z,2.95
2022-07-26T02:33:34.015Z,2.40
2022-07-26T02:36:01.084Z,2.70
2022-07-26T02:38:28.159Z,2.88
2022-07-26T02:40:55.225Z,2.88
2022-07-26T02:43:22.268Z,2.42
2022-07-26T02:46:01.211Z,2.45
2022-07-26T02:50:56.328Z,2.60
2022-07-26T02:53:23.274Z,2.40
2022-07-26T02:55:50.337Z,2.67
2022-07-26T02:58:17.347Z,2.72
2022-07-26T03:00:44.434Z,2.83
2022-07-26T03:03:14.319Z,3.20
2022-07-26T03:05:41.746Z,2.42
2022-07-26T03:08:09.104Z,2.90
2022-07-26T03:10:36.250Z,2.60
2022-07-26T03:13:03.389Z,3.10
2022-07-26T03:15:30.616Z,2.88
2022-07-26T03:17:57.721Z,2.53
2022-07-26T03:20:24.913Z,2.70
2022-07-26T03:22:51.956Z,3.28
2022-07-26T03:25:19.314Z,2.40
2022-07-26T03:27:46.646Z,2.67
2022-07-26T03:30:14.807Z,2.67
2022-07-26T03:32:42.050Z,2.70
2022-07-26T03:35:09.610Z,2.97
2022-07-26T03:37:45.113Z,2.40
2022-07-26T03:40:17.911Z,2.72
2022-07-26T03:42:46.161Z,2.72
2022-07-26T03:45:14.770Z,2.67
2022-07-26T03:47:42.663Z,2.75
2022-07-26T03:50:11.334Z,2.70
2022-07-26T03:52:38.384Z,2.60
2022-07-26T03:55:26.497Z,2.58
2022-07-26T03:57:53.745Z,2.50
2022-07-26T04:00:20.776Z,2.65
2022-07-26T04:02:48.014Z,2.95
2022-07-26T04:05:15.135Z,2.90
2022-07-26T04:07:52.520Z,2.60
2022-07-26T04:10:21.636Z,2.30
2022-07-26T04:12:49.431Z,3.05
2022-07-26T04:15:17.332Z,2.10
2022-07-26T04:17:44.554Z,2.65
2022-07-26T04:20:12.858Z,2.58
2022-07-26T04:22:40.761Z,2.97
2022-07-26T04:25:09.269Z,2.30
2022-07-26T04:27:37.549Z,2.53
2022-07-26T04:30:08.579Z,2.70
2022-07-26T04:32:38.102Z,2.30
2022-07-26T04:35:05.611Z,2.88
2022-07-26T04:37:39.333Z,2.40
2022-07-26T04:40:07.169Z,2.35
2022-07-26T04:42:34.331Z,2.33
2022-07-26T04:45:07.478Z,2.80
2022-07-26T04:47:35.298Z,2.50
2022-07-26T04:50:02.815Z,2.60
2022-07-26T04:52:29.859Z,2.65
2022-07-26T04:54:56.883Z,2.58
2022-07-26T04:57:24.039Z,2.40
2022-07-26T05:00:03.670Z,2.55
2022-07-26T05:02:38.242Z,2.75
2022-07-26T05:05:06.404Z,2.53
2022-07-26T05:07:47.748Z,2.75
2022-07-26T05:10:16.082Z,2.95
2022-07-26T05:12:43.271Z,2.20
2022-07-26T05:15:14.069Z,2.75
2022-07-26T05:17:44.745Z,2.63
2022-07-26T05:20:15.326Z,2.70
2022-07-26T05:25:10.340Z,2.60
2022-07-26T05:27:37.504Z,2.72
2022-07-26T05:30:04.745Z,2.50
2022-07-26T05:32:31.790Z,2.83
2022-07-26T05:34:58.801Z,2.65
2022-07-26T05:37:30.009Z,2.75
2022-07-26T05:39:58.159Z,2.92
2022-07-26T05:42:25.987Z,2.38
2022-07-26T05:44:53.384Z,2.88
2022-07-26T05:47:23.167Z,2.55
2022-07-26T05:49:50.643Z,2.92
2022-07-26T05:52:17.825Z,2.72
2022-07-26T05:54:44.838Z,3.20
2022-07-26T05:57:11.885Z,3.20
2022-07-26T05:59:38.898Z,3.15
2022-07-26T06:02:08.618Z,3.10
2022-07-26T06:04:36.050Z,2.60
2022-07-26T06:07:05.257Z,3.17
2022-07-26T06:09:32.346Z,3.35
2022-07-26T06:11:59.704Z,2.95
2022-07-26T06:14:26.890Z,3.63
2022-07-26T06:16:55.728Z,3.65
2022-07-26T06:19:22.904Z,3.30
2022-07-26T06:21:49.943Z,3.00
2022-07-26T06:24:16.970Z,3.20
2022-07-26T06:26:44.737Z,3.15
2022-07-26T06:29:11.715Z,3.10
2022-07-26T06:31:38.939Z,3.30
2022-07-26T06:34:06.332Z,2.92
2022-07-26T06:36:36.970Z,3.28
2022-07-26T06:39:04.161Z,3.00
2022-07-26T06:41:31.207Z,3.17
2022-07-26T06:44:04.414Z,3.25
2022-07-26T06:46:31.637Z,2.78
2022-07-26T06:48:58.952Z,3.17
2022-07-26T06:51:26.111Z,2.92
2022-07-26T06:53:53.188Z,2.88
2022-07-26T06:56:20.443Z,3.03
2022-07-26T06:58:48.491Z,2.50
2022-07-26T07:01:57.746Z,3.08
2022-07-26T07:04:02.929Z,2.70
2022-07-26T07:06:30.053Z,3.50
2022-07-26T07:08:57.203Z,2.88
2022-07-26T07:11:24.474Z,2.85
2022-07-26T07:18:06.195Z,2.92
2022-07-26T07:21:00.022Z,3.47
2022-07-26T07:23:27.089Z,2.78
2022-07-26T07:25:54.451Z,3.10
2022-07-26T07:28:21.486Z,2.90
2022-07-26T07:30:50.860Z,2.70
2022-07-26T07:33:22.907Z,3.10
2022-07-26T07:35:51.373Z,2.60
2022-07-26T07:38:18.574Z,2.45
2022-07-26T07:40:46.146Z,2.70
2022-07-26T07:43:13.346Z,3.45
2022-07-26T07:45:40.453Z,2.90
2022-07-26T07:48:07.519Z,2.50
2022-07-26T07:50:35.596Z,2.58
2022-07-26T07:53:02.637Z,2.60
2022-07-26T07:55:41.503Z,2.58
2022-07-26T07:58:14.328Z,2.50
2022-07-26T08:00:41.996Z,2.47
2022-07-26T08:03:09.071Z,2.65
2022-07-26T08:05:36.210Z,2.45
2022-07-26T08:08:08.383Z,2.10
2022-07-26T08:10:35.890Z,2.53
2022-07-26T08:13:10.752Z,2.50
2022-07-26T08:15:39.186Z,1.65
2022-07-26T08:18:07.996Z,2.00
2022-07-26T08:20:35.815Z,1.90
2022-07-26T08:23:04.009Z,2.00
2022-07-26T08:25:31.398Z,1.92
2022-07-26T08:28:03.586Z,1.80
2022-07-26T08:30:32.245Z,2.45
2022-07-26T08:32:59.563Z,1.75
2022-07-26T08:35:26.622Z,1.63
2022-07-26T08:37:53.655Z,1.60
2022-07-26T08:40:20.750Z,1.58
2022-07-26T08:42:55.648Z,1.60
2022-07-26T08:45:28.500Z,1.65
2022-07-26T08:48:16.860Z,1.77
2022-07-26T08:50:44.307Z,1.75
2022-07-26T08:53:13.132Z,1.50
2022-07-26T08:56:04.726Z,1.70
2022-07-26T08:58:27.403Z,1.67
2022-07-26T09:01:04.769Z,1.63
2022-07-26T09:03:32.186Z,1.55
2022-07-26T09:06:15.635Z,1.80
2022-07-26T09:08:43.957Z,1.52
2022-07-26T09:11:30.803Z,1.63
2022-07-26T09:14:06.060Z,1.60
2022-07-26T09:16:38.816Z,2.05
2022-07-26T09:19:24.718Z,2.00
2022-07-26T09:21:52.847Z,1.60
2022-07-26T09:24:41.165Z,1.70
2022-07-26T09:27:11.907Z,1.55
2022-07-26T09:29:50.777Z,1.40
2022-07-26T09:32:20.637Z,2.27
2022-07-26T09:34:53.716Z,1.60
2022-07-26T09:37:38.700Z,1.40
2022-07-26T09:40:13.095Z,1.52
2022-07-26T09:42:55.732Z,1.80
2022-07-26T09:45:23.483Z,1.38
2022-07-26T09:47:50.905Z,1.42
2022-07-26T09:50:23.195Z,1.45
2022-07-26T09:53:00.828Z,1.63
2022-07-26T09:55:36.415Z,1.45
2022-07-26T09:58:10.349Z,1.38
2022-07-26T10:00:37.351Z,1.35
2022-07-26T10:03:04.512Z,1.35
2022-07-26T10:05:33.525Z,1.60
2022-07-26T10:08:01.124Z,1.38
2022-07-26T10:10:31.064Z,1.58
2022-07-26T10:12:58.845Z,1.40
2022-07-26T10:15:47.179Z,1.60
2022-07-26T10:18:36.576Z,1.55
2022-07-26T10:21:23.843Z,1.73
2022-07-26T10:23:59.764Z,1.40
2022-07-26T10:26:32.891Z,1.30
2022-07-26T10:29:17.981Z,1.08
2022-07-26T10:31:50.428Z,1.40
2022-07-26T10:34:38.621Z,1.45
2022-07-26T10:37:10.919Z,1.10
2022-07-26T10:39:39.120Z,1.05
2022-07-26T10:42:11.318Z,1.30
2022-07-26T10:44:42.105Z,1.23
2022-07-26T10:47:09.052Z,1.35
2022-07-26T10:49:38.822Z,1.30
2022-07-26T10:52:07.356Z,1.20
2022-07-26T10:55:04.595Z,1.10
2022-07-26T10:57:32.887Z,1.00
2022-07-26T11:00:01.751Z,1.10
2022-07-26T11:02:32.776Z,1.10
2022-07-26T11:05:01.568Z,1.00
2022-07-26T11:07:29.627Z,1.02
2022-07-26T11:09:57.734Z,1.10
2022-07-26T11:12:24.894Z,1.15
2022-07-26T11:14:53.360Z,1.23
2022-07-26T11:17:29.429Z,1.30
2022-07-26T11:20:01.834Z,1.27
2022-07-26T11:22:33.116Z,1.30
2022-07-26T11:25:00.249Z,1.20
2022-07-26T11:27:27.296Z,1.35
2022-07-26T11:29:54.533Z,1.23
2022-07-26T11:32:25.397Z,1.05
2022-07-26T11:35:04.095Z,1.38
2022-07-26T11:37:31.540Z,1.48
2022-07-26T11:39:58.923Z,1.05
2022-07-26T11:42:26.313Z,1.33
2022-07-26T11:44:54.101Z,1.40
2022-07-26T11:47:24.239Z,1.02
2022-07-26T11:52:42.571Z,1.40
2022-07-26T11:55:09.892Z,1.17
2022-07-26T11:57:36.983Z,1.13
2022-07-26T12:00:05.181Z,1.17
2022-07-26T12:02:41.524Z,1.38
2022-07-26T12:05:23.512Z,1.38
2022-07-26T12:08:07.314Z,1.27
2022-07-26T12:10:34.672Z,1.40
2022-07-26T12:13:10.145Z,1.85
2022-07-26T12:15:47.148Z,1.33
2022-07-26T12:18:26.371Z,1.40
2022-07-26T12:21:05.193Z,1.30
2022-07-26T12:23:44.442Z,0.93
2022-07-26T12:26:29.305Z,1.55
2022-07-26T12:28:57.484Z,1.00
2022-07-26T12:31:30.071Z,1.27
2022-07-26T12:33:57.897Z,0.90
2022-07-26T12:36:27.162Z,1.30
2022-07-26T12:38:56.729Z,1.02
2022-07-26T12:41:36.924Z,1.00
2022-07-26T12:44:05.870Z,1.20
2022-07-26T12:46:37.100Z,1.08
2022-07-26T12:49:04.998Z,0.90
2022-07-26T12:51:32.469Z,1.00
2022-07-26T12:53:59.653Z,0.93
2022-07-26T12:56:26.703Z,1.10
2022-07-26T12:58:54.455Z,1.00
2022-07-26T13:01:21.740Z,1.10
2022-07-26T13:03:48.770Z,0.93
2022-07-26T13:06:15.700Z,1.05
2022-07-26T13:08:42.764Z,1.05
2022-07-26T13:11:10.446Z,1.08
2022-07-26T13:13:37.552Z,1.10
2022-07-26T13:16:11.150Z,1.10
2022-07-26T13:18:42.154Z,0.93
2022-07-26T13:21:09.152Z,1.10
2022-07-26T13:23:36.310Z,1.13
2022-07-26T13:26:04.396Z,1.05
2022-07-26T13:28:36.296Z,0.75
2022-07-26T13:31:03.738Z,1.00
2022-07-26T13:33:32.090Z,0.73
2022-07-26T13:35:59.094Z,1.17
2022-07-26T13:38:26.250Z,1.10
2022-07-26T13:40:53.314Z,0.80
2022-07-26T13:43:20.432Z,0.93
2022-07-26T13:45:47.582Z,0.90
2022-07-26T13:48:14.722Z,1.35
2022-07-26T13:50:41.807Z,0.90
2022-07-26T13:53:09.802Z,1.10
2022-07-26T13:55:37.028Z,1.15
2022-07-26T13:58:09.713Z,0.70
2022-07-26T14:00:37.463Z,1.17
2022-07-26T14:03:04.792Z,1.10
2022-07-26T14:05:31.885Z,1.08
2022-07-26T14:07:59.058Z,0.95
2022-07-26T14:10:26.582Z,0.80
2022-07-26T14:12:53.715Z,1.00
2022-07-26T14:15:22.995Z,1.00
2022-07-26T14:17:53.790Z,1.65
2022-07-26T14:20:21.367Z,0.80
2022-07-26T14:22:53.559Z,0.80
2022-07-26T14:25:21.761Z,0.93
2022-07-26T14:27:50.185Z,1.05
2022-07-26T14:30:17.390Z,1.05
2022-07-26T14:32:44.679Z,1.08
2022-07-26T14:35:11.959Z,1.20
2022-07-26T14:37:44.081Z,0.90
2022-07-26T14:40:14.926Z,1.10
2022-07-26T14:42:42.280Z,1.27
2022-07-26T14:45:09.937Z,1.00
2022-07-26T14:47:37.505Z,0.95
2022-07-26T14:50:07.724Z,1.15
2022-07-26T14:52:44.587Z,0.80
2022-07-26T14:55:13.909Z,1.00
2022-07-26T14:57:41.033Z,0.85
2022-07-26T15:00:10.881Z,0.90
2022-07-26T15:02:46.290Z,0.80
2022-07-26T15:05:15.036Z,0.90
2022-07-26T15:07:42.958Z,0.80
2022-07-26T15:10:13.381Z,1.00
2022-07-26T15:12:41.230Z,1.13
2022-07-26T15:15:09.405Z,1.00
2022-07-26T15:17:36.977Z,1.20
2022-07-26T15:20:06.084Z,1.17
2022-07-26T15:22:33.691Z,0.93
2022-07-26T15:25:00.718Z,0.77
2022-07-26T15:27:29.763Z,0.98
2022-07-26T15:30:03.220Z,0.90
2022-07-26T15:32:32.086Z,0.70
2022-07-26T15:34:59.477Z,1.17
2022-07-26T15:37:26.582Z,0.80
2022-07-26T15:39:53.548Z,1.05
2022-07-26T15:42:20.859Z,0.90
2022-07-26T15:44:50.766Z,0.88
2022-07-26T15:47:43.568Z,1.05
2022-07-26T15:50:09.734Z,1.00
2022-07-26T15:52:39.566Z,0.90
2022-07-26T15:55:07.945Z,0.90
2022-07-26T15:57:35.600Z,0.80
2022-07-26T16:00:11.281Z,1.00
2022-07-26T16:02:39.853Z,0.98
2022-07-26T16:05:08.066Z,0.80
2022-07-26T16:07:35.121Z,0.82
2022-07-26T16:10:02.215Z,1.08
2022-07-26T16:12:29.725Z,1.10
2022-07-26T16:14:56.988Z,0.93
2022-07-26T16:17:24.083Z,1.00
2022-07-26T16:19:51.748Z,1.20
2022-07-26T16:22:18.951Z,0.80
2022-07-26T16:24:46.095Z,1.00
2022-07-26T16:27:13.187Z,0.93
2022-07-26T16:29:40.170Z,1.13
2022-07-26T16:32:11.917Z,0.90
2022-07-26T16:34:39.008Z,0.95
2022-07-26T16:37:06.054Z,0.90
2022-07-26T16:39:33.060Z,0.82
2022-07-26T16:42:06.271Z,1.05
2022-07-26T16:44:33.999Z,1.00
2022-07-26T16:47:01.305Z,1.27
2022-07-26T16:49:28.491Z,0.75
2022-07-26T16:51:57.627Z,0.82
2022-07-26T16:54:25.303Z,0.90
2022-07-26T16:56:52.376Z,1.00
2022-07-26T16:59:19.360Z,1.02
2022-07-26T17:01:46.434Z,1.00
2022-07-26T17:04:13.543Z,1.10
2022-07-26T17:06:40.710Z,0.90
2022-07-26T17:09:15.454Z,0.80
2022-07-26T17:11:42.949Z,0.75
2022-07-26T17:14:09.970Z,0.98
2022-07-26T17:16:37.247Z,1.15
2022-07-26T17:19:04.316Z,1.08
2022-07-26T17:21:31.348Z,0.90
2022-07-26T17:24:01.540Z,0.90
2022-07-26T17:26:31.233Z,1.17
2022-07-26T17:28:58.374Z,0.98
2022-07-26T17:31:25.414Z,1.05
2022-07-26T17:33:52.435Z,1.20
2022-07-26T17:36:30.561Z,1.10
2022-07-26T17:38:58.155Z,1.13
2022-07-26T17:41:32.416Z,1.10
2022-07-26T17:44:03.015Z,0.80
2022-07-26T17:46:33.914Z,1.00
2022-07-26T17:49:01.000Z,1.05
2022-07-26T17:51:28.018Z,1.17
2022-07-26T17:53:54.987Z,1.05
2022-07-26T17:56:21.928Z,1.00
2022-07-26T17:58:48.904Z,1.13
2022-07-26T18:01:16.072Z,1.20
2022-07-26T18:03:43.383Z,1.00
2022-07-26T18:06:10.680Z,0.90
2022-07-26T18:08:38.322Z,1.13
2022-07-26T18:11:05.525Z,1.10
2022-07-26T18:13:32.475Z,1.20
2022-07-26T18:16:04.169Z,1.17
2022-07-26T18:18:32.828Z,1.00
2022-07-26T18:20:59.827Z,1.02
2022-07-26T18:23:26.845Z,1.23
2022-07-26T18:25:53.885Z,1.00
2022-07-26T18:28:21.074Z,1.10
2022-07-26T18:30:48.190Z,1.38
2022-07-26T18:33:15.149Z,1.10
2022-07-26T18:35:42.480Z,1.42
2022-07-26T18:38:09.753Z,1.40
2022-07-26T18:40:37.481Z,1.30
2022-07-26T18:43:04.863Z,1.10
2022-07-26T18:45:32.100Z,1.15
2022-07-26T18:47:59.838Z,1.00
2022-07-26T18:50:27.444Z,1.33
2022-07-26T18:52:59.414Z,1.00
2022-07-26T18:55:26.476Z,1.65
2022-07-26T18:57:53.537Z,0.93
2022-07-26T19:00:23.070Z,1.20
2022-07-26T19:02:52.215Z,1.15
2022-07-26T19:05:20.430Z,1.27
2022-07-26T19:07:47.698Z,1.30
2022-07-26T19:10:15.382Z,1.30
2022-07-26T19:12:43.895Z,1.33
2022-07-26T19:15:11.439Z,1.38
2022-07-26T19:17:38.496Z,1.33
2022-07-26T19:20:06.856Z,1.23
2022-07-26T19:22:34.122Z,1.10
2022-07-26T19:25:01.680Z,1.38
2022-07-26T19:27:28.755Z,1.30
2022-07-26T19:29:57.127Z,1.40
2022-07-26T19:32:28.019Z,1.40
2022-07-26T19:34:57.356Z,1.30
2022-07-26T19:37:24.303Z,1.20
2022-07-26T19:39:53.746Z,1.52
2022-07-26T19:42:20.806Z,1.30
2022-07-26T19:44:48.201Z,1.38
2022-07-26T19:47:15.210Z,1.17
2022-07-26T19:49:42.488Z,1.30
2022-07-26T19:52:11.740Z,1.48
2022-07-26T19:54:39.227Z,1.70
2022-07-26T19:57:07.725Z,1.45
2022-07-26T19:59:34.893Z,1.50
2022-07-26T20:02:02.410Z,1.30
2022-07-26T20:04:29.820Z,1.58
2022-07-26T20:06:56.999Z,1.40
2022-07-26T20:09:23.939Z,1.30
2022-07-26T20:11:51.173Z,1.40
2022-07-26T20:14:19.937Z,1.52
2022-07-26T20:16:47.271Z,1.50
2022-07-26T20:19:14.460Z,1.30
2022-07-26T20:21:41.825Z,1.33
2022-07-26T20:24:09.381Z,1.40
2022-07-26T20:26:37.629Z,1.42
2022-07-26T20:29:06.020Z,1.40
2022-07-26T20:31:33.935Z,1.60
2022-07-26T20:34:00.883Z,1.40
2022-07-26T20:36:28.058Z,1.10
2022-07-26T20:38:55.043Z,1.50
2022-07-26T20:41:21.981Z,1.40
2022-07-26T20:43:48.984Z,1.45
2022-07-26T20:46:16.108Z,1.40
2022-07-26T20:48:43.493Z,1.65
2022-07-26T20:51:13.414Z,1.10
2022-07-26T20:53:42.180Z,1.52
2022-07-26T20:56:10.591Z,1.20
2022-07-26T20:58:37.875Z,1.15
2022-07-26T21:01:05.339Z,1.40
2022-07-26T21:03:32.739Z,1.20
2022-07-26T21:05:59.832Z,1.73
2022-07-26T21:08:26.900Z,1.17
2022-07-26T21:15:19.147Z,1.40
2022-07-26T21:17:46.179Z,1.52
2022-07-26T21:20:13.282Z,1.30
2022-07-26T21:22:40.346Z,1.92
2022-07-26T21:25:07.912Z,1.20
2022-07-26T21:27:34.959Z,1.20
2022-07-26T21:30:02.116Z,1.40
2022-07-26T21:32:31.681Z,1.70
2022-07-26T21:34:59.409Z,1.30
2022-07-26T21:37:26.943Z,1.48
2022-07-26T21:39:54.001Z,1.40
2022-07-26T21:42:21.038Z,1.45
2022-07-26T21:44:53.761Z,1.30
2022-07-26T21:47:20.812Z,1.20
2022-07-26T21:49:47.967Z,1.40
2022-07-26T21:52:15.025Z,1.40
2022-07-26T21:54:42.018Z,1.25
2022-07-26T21:57:09.074Z,1.33
2022-07-26T21:59:36.051Z,1.30
2022-07-26T22:02:03.170Z,1.25
2022-07-26T22:04:30.943Z,1.40
2022-07-26T22:06:58.025Z,1.70
2022-07-26T22:09:25.062Z,1.10
2022-07-26T22:11:53.534Z,1.35
2022-07-26T22:14:21.428Z,1.45
2022-07-26T22:16:49.382Z,1.52
2022-07-26T22:19:16.569Z,1.40
2022-07-26T22:21:43.651Z,1.52
2022-07-26T22:24:10.779Z,1.30
2022-07-26T22:26:37.828Z,1.45
2022-07-26T22:29:05.858Z,1.50
2022-07-26T22:31:33.027Z,1.55
2022-07-26T22:34:00.063Z,1.42
2022-07-26T22:36:27.153Z,1.58
2022-07-26T22:38:54.210Z,1.90
2022-07-26T22:41:21.266Z,1.80
2022-07-26T22:43:48.345Z,1.40
2022-07-26T22:46:18.431Z,1.50
2022-07-26T22:48:54.977Z,1.50
2022-07-26T22:51:22.052Z,1.20
2022-07-26T22:53:49.097Z,1.38
2022-07-26T22:56:17.150Z,1.50
2022-07-26T22:58:47.006Z,1.20
2022-07-26T23:01:14.245Z,1.23
2022-07-26T23:03:42.106Z,1.40
2022-07-26T23:06:20.192Z,1.45
2022-07-26T23:08:58.522Z,1.30
2022-07-26T23:11:25.568Z,1.60
2022-07-26T23:13:58.781Z,1.42
2022-07-26T23:16:26.922Z,1.15
2022-07-26T23:18:54.067Z,1.17
2022-07-26T23:21:21.110Z,1.80
2022-07-26T23:23:48.138Z,1.50
2022-07-26T23:26:15.133Z,1.40
2022-07-26T23:28:42.159Z,1.60
2022-07-26T23:31:12.721Z,1.70
2022-07-26T23:33:52.894Z,1.83
2022-07-26T23:36:26.259Z,1.70
2022-07-26T23:38:57.963Z,1.40
2022-07-26T23:41:25.599Z,1.33
2022-07-26T23:43:54.237Z,1.63
2022-07-26T23:46:22.019Z,1.42
2022-07-26T23:48:49.726Z,1.30
2022-07-26T23:51:17.045Z,1.42
2022-07-26T23:53:44.205Z,1.48
2022-07-26T23:56:11.294Z,1.92
2022-07-26T23:58:38.629Z,1.92
